sensor_id;sensor_type;location;lat;lon;timestamp;pressure;altitude;pressure_sealevel;temperature;humidity
31062;BME280;17724;53.546;9.974;2023-02-14T00:01:13;103772.31;;;7.49;84.00
31062;BME280;17724;53.546;9.974;2023-02-14T00:05:14;103771.75;;;7.37;84.70
31062;BME280;17724;53.546;9.974;2023-02-14T00:09:18;103773.38;;;7.56;84.20
31062;BME280;17724;53.546;9.974;2023-02-14T00:13:19;103776.09;;;7.56;83.86
31062;BME280;17724;53.546;9.974;2023-02-14T00:17:19;103772.06;;;7.76;83.50
31062;BME280;17724;53.546;9.974;2023-02-14T00:21:20;103782.66;;;7.71;83.71
31062;BME280;17724;53.546;9.974;2023-02-14T00:25:20;103777.34;;;7.70;83.24
31062;BME280;17724;53.546;9.974;2023-02-14T00:29:24;103783.38;;;7.89;83.46
31062;BME280;17724;53.546;9.974;2023-02-14T00:33:25;103786.13;;;7.89;82.39
31062;BME280;17724;53.546;9.974;2023-02-14T00:37:25;103781.47;;;7.74;82.87
31062;BME280;17724;53.546;9.974;2023-02-14T00:41:26;103778.41;;;7.85;83.00
31062;BME280;17724;53.546;9.974;2023-02-14T00:45:27;103771.75;;;7.87;82.80
31062;BME280;17724;53.546;9.974;2023-02-14T00:49:27;103761.28;;;7.83;82.11
31062;BME280;17724;53.546;9.974;2023-02-14T00:53:28;103782.34;;;7.74;82.89
31062;BME280;17724;53.546;9.974;2023-02-14T00:57:28;103778.22;;;7.70;83.05
31062;BME280;17724;53.546;9.974;2023-02-14T01:01:29;103775.28;;;7.63;83.03
31062;BME280;17724;53.546;9.974;2023-02-14T01:05:29;103757.13;;;7.62;83.90
31062;BME280;17724;53.546;9.974;2023-02-14T01:09:30;103757.84;;;7.73;84.90
31062;BME280;17724;53.546;9.974;2023-02-14T01:13:30;103734.72;;;7.67;84.37
31062;BME280;17724;53.546;9.974;2023-02-14T01:17:30;103754.25;;;7.80;83.86
31062;BME280;17724;53.546;9.974;2023-02-14T01:21:32;103731.59;;;7.62;83.54
31062;BME280;17724;53.546;9.974;2023-02-14T01:25:35;103749.91;;;7.61;84.07
31062;BME280;17724;53.546;9.974;2023-02-14T01:29:36;103750.56;;;7.47;83.66
31062;BME280;17724;53.546;9.974;2023-02-14T01:33:38;103745.16;;;7.63;84.17
31062;BME280;17724;53.546;9.974;2023-02-14T01:37:38;103745.97;;;7.56;83.17
31062;BME280;17724;53.546;9.974;2023-02-14T01:41:41;103746.31;;;7.61;83.36
31062;BME280;17724;53.546;9.974;2023-02-14T01:45:42;103743.97;;;7.66;83.05
31062;BME280;17724;53.546;9.974;2023-02-14T01:49:48;103727.16;;;7.61;82.76
31062;BME280;17724;53.546;9.974;2023-02-14T01:53:52;103692.75;;;7.58;82.24
31062;BME280;17724;53.546;9.974;2023-02-14T01:58:03;103717.22;;;7.52;82.29
31062;BME280;17724;53.546;9.974;2023-02-14T02:02:04;103731.28;;;7.73;82.11
31062;BME280;17724;53.546;9.974;2023-02-14T02:06:29;103718.94;;;7.61;82.26
31062;BME280;17724;53.546;9.974;2023-02-14T02:10:31;103718.34;;;7.41;82.59
31062;BME280;17724;53.546;9.974;2023-02-14T02:14:32;103730.34;;;7.40;83.48
31062;BME280;17724;53.546;9.974;2023-02-14T02:44:40;103710.75;;;7.19;84.16
31062;BME280;17724;53.546;9.974;2023-02-14T02:48:54;103697.53;;;7.14;84.29
31062;BME280;17724;53.546;9.974;2023-02-14T02:57:20;103706.94;;;7.03;85.06
31062;BME280;17724;53.546;9.974;2023-02-14T03:01:28;103692.56;;;7.09;84.91
31062;BME280;17724;53.546;9.974;2023-02-14T03:05:30;103706.50;;;7.24;85.07
31062;BME280;17724;53.546;9.974;2023-02-14T03:13:42;103693.94;;;7.13;85.24
31062;BME280;17724;53.546;9.974;2023-02-14T03:18:18;103698.25;;;7.16;85.18
31062;BME280;17724;53.546;9.974;2023-02-14T03:22:38;103680.22;;;6.63;86.57
31062;BME280;17724;53.546;9.974;2023-02-14T03:31:23;103691.78;;;6.83;86.77
31062;BME280;17724;53.546;9.974;2023-02-14T03:35:33;103693.00;;;6.88;86.45
31062;BME280;17724;53.546;9.974;2023-02-14T03:39:39;103698.25;;;6.82;86.80
31062;BME280;17724;53.546;9.974;2023-02-14T03:43:47;103677.28;;;6.90;86.73
31062;BME280;17724;53.546;9.974;2023-02-14T03:47:49;103692.50;;;6.93;87.27
31062;BME280;17724;53.546;9.974;2023-02-14T03:51:53;103679.19;;;6.98;87.36
31062;BME280;17724;53.546;9.974;2023-02-14T04:00:15;103680.03;;;6.90;87.60
31062;BME280;17724;53.546;9.974;2023-02-14T04:04:22;103679.03;;;7.00;87.76
31062;BME280;17724;53.546;9.974;2023-02-14T04:08:26;103662.59;;;7.00;87.16
31062;BME280;17724;53.546;9.974;2023-02-14T04:12:27;103661.25;;;7.04;87.54
31062;BME280;17724;53.546;9.974;2023-02-14T04:16:27;103667.88;;;6.93;87.73
31062;BME280;17724;53.546;9.974;2023-02-14T04:20:28;103654.03;;;6.95;88.20
31062;BME280;17724;53.546;9.974;2023-02-14T04:24:29;103647.91;;;7.01;88.46
31062;BME280;17724;53.546;9.974;2023-02-14T04:28:29;103656.13;;;7.09;87.59
31062;BME280;17724;53.546;9.974;2023-02-14T04:32:30;103651.00;;;7.14;87.59
31062;BME280;17724;53.546;9.974;2023-02-14T04:36:30;103650.84;;;7.07;87.34
31062;BME280;17724;53.546;9.974;2023-02-14T04:40:31;103652.31;;;6.94;88.06
31062;BME280;17724;53.546;9.974;2023-02-14T04:44:32;103658.16;;;6.99;88.22
31062;BME280;17724;53.546;9.974;2023-02-14T04:48:37;103645.38;;;6.73;88.55
31062;BME280;17724;53.546;9.974;2023-02-14T04:52:38;103649.38;;;6.87;89.33
31062;BME280;17724;53.546;9.974;2023-02-14T04:56:38;103641.91;;;7.05;88.83
31062;BME280;17724;53.546;9.974;2023-02-14T05:00:39;103641.25;;;7.03;88.73
31062;BME280;17724;53.546;9.974;2023-02-14T05:04:40;103654.03;;;6.95;89.08
31062;BME280;17724;53.546;9.974;2023-02-14T05:08:40;103639.47;;;6.94;89.14
31062;BME280;17724;53.546;9.974;2023-02-14T05:12:41;103631.16;;;7.04;89.31
31062;BME280;17724;53.546;9.974;2023-02-14T05:16:41;103633.91;;;7.12;88.94
31062;BME280;17724;53.546;9.974;2023-02-14T05:20:42;103642.06;;;6.96;88.84
31062;BME280;17724;53.546;9.974;2023-02-14T05:24:42;103644.28;;;6.92;89.65
31062;BME280;17724;53.546;9.974;2023-02-14T05:28:43;103645.84;;;6.95;89.65
31062;BME280;17724;53.546;9.974;2023-02-14T05:32:43;103642.72;;;6.89;89.47
31062;BME280;17724;53.546;9.974;2023-02-14T05:36:44;103635.72;;;6.87;90.11
31062;BME280;17724;53.546;9.974;2023-02-14T05:40:44;103634.31;;;6.83;89.77
31062;BME280;17724;53.546;9.974;2023-02-14T05:44:45;103633.16;;;6.94;89.77
31062;BME280;17724;53.546;9.974;2023-02-14T05:48:46;103631.13;;;6.96;89.35
31062;BME280;17724;53.546;9.974;2023-02-14T05:52:46;103625.56;;;6.71;89.90
31062;BME280;17724;53.546;9.974;2023-02-14T05:56:47;103638.22;;;6.80;90.51
31062;BME280;17724;53.546;9.974;2023-02-14T06:00:47;103632.13;;;6.86;90.62
31062;BME280;17724;53.546;9.974;2023-02-14T06:04:48;103622.53;;;6.82;90.33
31062;BME280;17724;53.546;9.974;2023-02-14T06:08:48;103629.34;;;6.78;90.25
31062;BME280;17724;53.546;9.974;2023-02-14T06:12:49;103614.31;;;6.82;90.20
31062;BME280;17724;53.546;9.974;2023-02-14T06:16:51;103624.28;;;6.91;90.18
31062;BME280;17724;53.546;9.974;2023-02-14T06:20:52;103632.97;;;6.87;90.41
31062;BME280;17724;53.546;9.974;2023-02-14T06:24:52;103629.03;;;6.89;90.64
31062;BME280;17724;53.546;9.974;2023-02-14T06:28:54;103633.84;;;6.96;90.10
31062;BME280;17724;53.546;9.974;2023-02-14T06:32:55;103636.88;;;6.84;90.39
31062;BME280;17724;53.546;9.974;2023-02-14T06:36:55;103633.63;;;6.81;90.77
31062;BME280;17724;53.546;9.974;2023-02-14T06:41:05;103637.78;;;6.59;91.23
31062;BME280;17724;53.546;9.974;2023-02-14T06:45:06;103638.84;;;6.66;91.96
31062;BME280;17724;53.546;9.974;2023-02-14T06:49:06;103639.63;;;6.84;91.33
31062;BME280;17724;53.546;9.974;2023-02-14T06:53:07;103655.22;;;6.92;91.02
31062;BME280;17724;53.546;9.974;2023-02-14T06:57:07;103645.91;;;6.77;90.91
31062;BME280;17724;53.546;9.974;2023-02-14T07:01:08;103649.34;;;6.79;91.30
31062;BME280;17724;53.546;9.974;2023-02-14T07:05:08;103641.69;;;6.82;91.47
31062;BME280;17724;53.546;9.974;2023-02-14T07:09:09;103647.78;;;6.76;91.32
31062;BME280;17724;53.546;9.974;2023-02-14T07:13:09;103643.03;;;6.78;91.95
31062;BME280;17724;53.546;9.974;2023-02-14T07:17:10;103639.41;;;6.44;92.79
31062;BME280;17724;53.546;9.974;2023-02-14T07:21:10;103639.88;;;6.65;93.02
31062;BME280;17724;53.546;9.974;2023-02-14T07:25:11;103636.63;;;6.70;92.75
31062;BME280;17724;53.546;9.974;2023-02-14T07:29:12;103637.22;;;6.81;92.69
31062;BME280;17724;53.546;9.974;2023-02-14T07:33:12;103628.47;;;6.78;92.12
31062;BME280;17724;53.546;9.974;2023-02-14T07:37:13;103618.47;;;6.95;91.93
31062;BME280;17724;53.546;9.974;2023-02-14T07:41:13;103635.78;;;7.03;91.66
31062;BME280;17724;53.546;9.974;2023-02-14T07:45:14;103635.66;;;7.21;91.23
31062;BME280;17724;53.546;9.974;2023-02-14T07:49:14;103638.03;;;7.16;90.75
31062;BME280;17724;53.546;9.974;2023-02-14T07:53:15;103627.09;;;7.16;91.23
31062;BME280;17724;53.546;9.974;2023-02-14T07:57:15;103626.28;;;7.32;90.67
31062;BME280;17724;53.546;9.974;2023-02-14T08:01:16;103631.06;;;7.38;90.28
31062;BME280;17724;53.546;9.974;2023-02-14T08:05:17;103623.69;;;7.22;90.78
31062;BME280;17724;53.546;9.974;2023-02-14T08:09:18;103625.44;;;7.39;90.06
31062;BME280;17724;53.546;9.974;2023-02-14T08:13:25;103629.91;;;7.57;89.62
31062;BME280;17724;53.546;9.974;2023-02-14T08:17:25;103622.53;;;7.57;89.56
31062;BME280;17724;53.546;9.974;2023-02-14T08:21:26;103623.22;;;7.51;89.17
31062;BME280;17724;53.546;9.974;2023-02-14T08:25:27;103621.00;;;7.47;89.12
31062;BME280;17724;53.546;9.974;2023-02-14T08:29:27;103617.75;;;7.43;90.03
31062;BME280;17724;53.546;9.974;2023-02-14T08:33:28;103615.69;;;7.53;89.56
31062;BME280;17724;53.546;9.974;2023-02-14T08:37:28;103623.56;;;7.64;89.44
31062;BME280;17724;53.546;9.974;2023-02-14T08:41:29;103623.06;;;7.53;88.96
31062;BME280;17724;53.546;9.974;2023-02-14T08:45:30;103622.72;;;7.64;89.24
31062;BME280;17724;53.546;9.974;2023-02-14T08:49:30;103630.63;;;7.75;88.67
31062;BME280;17724;53.546;9.974;2023-02-14T08:53:31;103622.41;;;7.75;88.54
31062;BME280;17724;53.546;9.974;2023-02-14T08:57:31;103619.25;;;7.37;89.26
31062;BME280;17724;53.546;9.974;2023-02-14T09:01:32;103623.91;;;7.53;89.55
31062;BME280;17724;53.546;9.974;2023-02-14T09:05:33;103629.00;;;7.32;89.92
31062;BME280;17724;53.546;9.974;2023-02-14T09:09:33;103623.06;;;7.61;89.58
31062;BME280;17724;53.546;9.974;2023-02-14T09:13:34;103618.63;;;7.60;89.69
31062;BME280;17724;53.546;9.974;2023-02-14T09:17:36;103612.47;;;7.74;88.52
31062;BME280;17724;53.546;9.974;2023-02-14T09:21:36;103614.69;;;7.54;89.19
31062;BME280;17724;53.546;9.974;2023-02-14T09:25:37;103611.94;;;7.62;89.09
31062;BME280;17724;53.546;9.974;2023-02-14T09:29:37;103614.00;;;7.69;89.26
31062;BME280;17724;53.546;9.974;2023-02-14T09:33:39;103611.94;;;8.03;88.33
31062;BME280;17724;53.546;9.974;2023-02-14T09:37:58;103611.94;;;8.03;88.20
31062;BME280;17724;53.546;9.974;2023-02-14T09:42:35;103604.91;;;8.01;87.31
31062;BME280;17724;53.546;9.974;2023-02-14T09:46:45;103601.13;;;8.26;87.04
31062;BME280;17724;53.546;9.974;2023-02-14T09:50:50;103600.66;;;7.98;87.41
31062;BME280;17724;53.546;9.974;2023-02-14T09:54:56;103605.41;;;8.21;86.90
31062;BME280;17724;53.546;9.974;2023-02-14T10:03:34;103592.03;;;8.18;86.33
31062;BME280;17724;53.546;9.974;2023-02-14T10:07:52;103598.19;;;8.28;86.77
31062;BME280;17724;53.546;9.974;2023-02-14T10:11:56;103594.06;;;8.32;86.82
31062;BME280;17724;53.546;9.974;2023-02-14T10:24:44;103591.97;;;8.58;86.81
31062;BME280;17724;53.546;9.974;2023-02-14T10:28:48;103589.94;;;8.52;86.46
31062;BME280;17724;53.546;9.974;2023-02-14T10:41:19;103580.34;;;8.48;87.53
31062;BME280;17724;53.546;9.974;2023-02-14T10:54:15;103582.16;;;8.64;88.03
31062;BME280;17724;53.546;9.974;2023-02-14T10:58:20;103580.50;;;8.55;87.32
31062;BME280;17724;53.546;9.974;2023-02-14T11:02:24;103577.06;;;8.53;88.03
31062;BME280;17724;53.546;9.974;2023-02-14T11:06:27;103570.84;;;8.67;87.70
31062;BME280;17724;53.546;9.974;2023-02-14T11:10:32;103570.00;;;8.67;87.50
31062;BME280;17724;53.546;9.974;2023-02-14T11:14:35;103570.31;;;8.72;88.18
31062;BME280;17724;53.546;9.974;2023-02-14T11:18:38;103561.19;;;8.79;87.45
31062;BME280;17724;53.546;9.974;2023-02-14T11:22:39;103558.63;;;8.70;87.68
31062;BME280;17724;53.546;9.974;2023-02-14T11:26:44;103552.50;;;8.68;88.26
31062;BME280;17724;53.546;9.974;2023-02-14T11:30:46;103539.63;;;8.68;88.38
31062;BME280;17724;53.546;9.974;2023-02-14T11:35:03;103537.66;;;8.85;87.65
31062;BME280;17724;53.546;9.974;2023-02-14T11:39:34;103533.50;;;8.89;87.93
31062;BME280;17724;53.546;9.974;2023-02-14T11:43:36;103521.06;;;8.78;88.40
31062;BME280;17724;53.546;9.974;2023-02-14T11:47:37;103517.88;;;8.89;88.19
31062;BME280;17724;53.546;9.974;2023-02-14T11:51:43;103508.59;;;8.99;87.90
31062;BME280;17724;53.546;9.974;2023-02-14T11:55:50;103508.69;;;9.05;87.88
31062;BME280;17724;53.546;9.974;2023-02-14T11:59:54;103497.19;;;9.10;87.58
31062;BME280;17724;53.546;9.974;2023-02-14T12:04:03;103499.59;;;9.05;87.47
31062;BME280;17724;53.546;9.974;2023-02-14T12:08:06;103487.28;;;9.01;88.22
31062;BME280;17724;53.546;9.974;2023-02-14T12:12:18;103482.63;;;9.01;87.82
31062;BME280;17724;53.546;9.974;2023-02-14T12:16:31;103480.94;;;9.00;88.10
31062;BME280;17724;53.546;9.974;2023-02-14T12:20:44;103473.50;;;9.09;87.95
31062;BME280;17724;53.546;9.974;2023-02-14T12:24:55;103467.56;;;9.20;88.00
31062;BME280;17724;53.546;9.974;2023-02-14T12:29:23;103471.72;;;9.39;86.76
31062;BME280;17724;53.546;9.974;2023-02-14T12:33:28;103461.53;;;9.25;87.07
31062;BME280;17724;53.546;9.974;2023-02-14T12:46:40;103461.44;;;9.56;86.66
31062;BME280;17724;53.546;9.974;2023-02-14T12:51:13;103454.53;;;9.75;86.33
31062;BME280;17724;53.546;9.974;2023-02-14T12:55:42;103444.69;;;9.80;85.61
31062;BME280;17724;53.546;9.974;2023-02-14T13:04:34;103421.91;;;10.01;85.00
31062;BME280;17724;53.546;9.974;2023-02-14T13:13:27;103416.78;;;10.13;84.45
31062;BME280;17724;53.546;9.974;2023-02-14T13:17:43;103414.34;;;10.18;84.53
31062;BME280;17724;53.546;9.974;2023-02-14T13:21:47;103405.69;;;10.21;84.17
31062;BME280;17724;53.546;9.974;2023-02-14T13:25:55;103407.63;;;10.06;84.53
31062;BME280;17724;53.546;9.974;2023-02-14T13:30:00;103385.91;;;10.26;84.33
31062;BME280;17724;53.546;9.974;2023-02-14T13:34:26;103383.22;;;10.32;84.00
31062;BME280;17724;53.546;9.974;2023-02-14T13:38:29;103368.91;;;10.22;84.33
31062;BME280;17724;53.546;9.974;2023-02-14T13:46:48;103371.31;;;10.47;83.89
31062;BME280;17724;53.546;9.974;2023-02-14T13:55:06;103367.00;;;10.59;83.20
31062;BME280;17724;53.546;9.974;2023-02-14T13:59:27;103359.25;;;10.48;83.35
31062;BME280;17724;53.546;9.974;2023-02-14T14:07:28;103362.94;;;10.76;83.10
31062;BME280;17724;53.546;9.974;2023-02-14T14:15:30;103349.09;;;10.48;83.11
31062;BME280;17724;53.546;9.974;2023-02-14T14:23:34;103357.06;;;10.58;83.21
31062;BME280;17724;53.546;9.974;2023-02-14T14:27:41;103347.22;;;10.70;83.67
31062;BME280;17724;53.546;9.974;2023-02-14T14:31:44;103352.06;;;10.68;83.15
31062;BME280;17724;53.546;9.974;2023-02-14T14:36:02;103346.31;;;10.63;83.03
31062;BME280;17724;53.546;9.974;2023-02-14T14:40:05;103345.19;;;10.57;83.86
31062;BME280;17724;53.546;9.974;2023-02-14T14:44:07;103338.38;;;10.75;84.27
31062;BME280;17724;53.546;9.974;2023-02-14T14:48:13;103341.84;;;10.83;83.79
31062;BME280;17724;53.546;9.974;2023-02-14T14:52:26;103337.69;;;10.73;83.38
31062;BME280;17724;53.546;9.974;2023-02-14T14:56:34;103322.91;;;10.74;84.19
31062;BME280;17724;53.546;9.974;2023-02-14T15:00:37;103327.00;;;10.84;83.77
31062;BME280;17724;53.546;9.974;2023-02-14T15:04:41;103319.19;;;11.09;84.32
31062;BME280;17724;53.546;9.974;2023-02-14T15:08:42;103321.19;;;10.94;82.68
31062;BME280;17724;53.546;9.974;2023-02-14T15:12:43;103316.56;;;10.73;83.40
31062;BME280;17724;53.546;9.974;2023-02-14T15:17:04;103303.44;;;10.75;83.31
31062;BME280;17724;53.546;9.974;2023-02-14T15:21:06;103306.06;;;10.62;83.75
31062;BME280;17724;53.546;9.974;2023-02-14T15:25:15;103302.66;;;10.60;84.35
31062;BME280;17724;53.546;9.974;2023-02-14T15:29:26;103298.84;;;10.61;83.99
31062;BME280;17724;53.546;9.974;2023-02-14T15:33:29;103303.50;;;10.60;84.01
31062;BME280;17724;53.546;9.974;2023-02-14T15:37:31;103290.78;;;10.59;84.53
31062;BME280;17724;53.546;9.974;2023-02-14T15:41:32;103285.38;;;10.66;83.81
31062;BME280;17724;53.546;9.974;2023-02-14T15:45:33;103283.63;;;10.65;84.22
31062;BME280;17724;53.546;9.974;2023-02-14T15:49:35;103275.59;;;10.64;84.24
31062;BME280;17724;53.546;9.974;2023-02-14T15:57:42;103271.06;;;10.77;85.90
31062;BME280;17724;53.546;9.974;2023-02-14T16:01:56;103283.78;;;10.78;84.26
31062;BME280;17724;53.546;9.974;2023-02-14T16:05:58;103271.31;;;10.61;84.31
31062;BME280;17724;53.546;9.974;2023-02-14T16:10:37;103269.75;;;10.52;85.32
31062;BME280;17724;53.546;9.974;2023-02-14T16:14:38;103261.47;;;10.45;85.04
31062;BME280;17724;53.546;9.974;2023-02-14T16:18:45;103260.47;;;10.31;85.53
31062;BME280;17724;53.546;9.974;2023-02-14T16:22:49;103260.28;;;10.33;85.80
31062;BME280;17724;53.546;9.974;2023-02-14T16:26:49;103250.72;;;10.29;85.65
31062;BME280;17724;53.546;9.974;2023-02-14T16:30:55;103258.44;;;10.40;85.81
31062;BME280;17724;53.546;9.974;2023-02-14T16:34:56;103253.31;;;10.37;85.78
31062;BME280;17724;53.546;9.974;2023-02-14T16:38:58;103244.28;;;10.22;85.88
31062;BME280;17724;53.546;9.974;2023-02-14T16:43:01;103254.13;;;10.31;86.66
31062;BME280;17724;53.546;9.974;2023-02-14T16:47:09;103252.09;;;10.40;87.45
31062;BME280;17724;53.546;9.974;2023-02-14T16:51:13;103251.78;;;10.13;86.57
31062;BME280;17724;53.546;9.974;2023-02-14T16:55:16;103253.44;;;10.07;86.86
31062;BME280;17724;53.546;9.974;2023-02-14T16:59:19;103256.44;;;9.91;87.40
31062;BME280;17724;53.546;9.974;2023-02-14T17:03:19;103262.56;;;9.93;87.81
31062;BME280;17724;53.546;9.974;2023-02-14T17:07:20;103258.00;;;10.00;87.46
31062;BME280;17724;53.546;9.974;2023-02-14T17:11:22;103252.31;;;10.02;87.39
31062;BME280;17724;53.546;9.974;2023-02-14T17:15:24;103251.69;;;9.85;88.01
31062;BME280;17724;53.546;9.974;2023-02-14T17:19:25;103246.00;;;9.86;88.17
31062;BME280;17724;53.546;9.974;2023-02-14T17:23:28;103243.09;;;9.73;88.79
31062;BME280;17724;53.546;9.974;2023-02-14T17:27:29;103239.03;;;9.69;88.90
31062;BME280;17724;53.546;9.974;2023-02-14T17:31:29;103231.56;;;9.63;89.47
31062;BME280;17724;53.546;9.974;2023-02-14T17:35:33;103234.06;;;9.58;90.13
31062;BME280;17724;53.546;9.974;2023-02-14T17:39:33;103240.78;;;9.55;90.52
31062;BME280;17724;53.546;9.974;2023-02-14T17:43:34;103237.34;;;9.53;90.99
31062;BME280;17724;53.546;9.974;2023-02-14T17:47:34;103242.28;;;9.58;90.77
31062;BME280;17724;53.546;9.974;2023-02-14T17:51:35;103234.59;;;9.53;91.02
31062;BME280;17724;53.546;9.974;2023-02-14T17:55:35;103236.03;;;9.49;91.25
31062;BME280;17724;53.546;9.974;2023-02-14T17:59:36;103233.75;;;9.53;91.43
31062;BME280;17724;53.546;9.974;2023-02-14T18:03:38;103228.25;;;9.53;91.64
31062;BME280;17724;53.546;9.974;2023-02-14T18:07:38;103226.66;;;9.58;91.89
31062;BME280;17724;53.546;9.974;2023-02-14T18:11:41;103223.78;;;9.67;91.46
31062;BME280;17724;53.546;9.974;2023-02-14T18:15:41;103214.72;;;9.51;92.55
31062;BME280;17724;53.546;9.974;2023-02-14T18:19:42;103213.41;;;9.32;93.45
31062;BME280;17724;53.546;9.974;2023-02-14T18:23:43;103223.44;;;9.40;93.61
31062;BME280;17724;53.546;9.974;2023-02-14T18:27:43;103228.19;;;9.46;93.88
31062;BME280;17724;53.546;9.974;2023-02-14T18:31:44;103213.63;;;9.46;94.23
31062;BME280;17724;53.546;9.974;2023-02-14T18:35:44;103212.19;;;9.20;93.84
31062;BME280;17724;53.546;9.974;2023-02-14T18:39:45;103206.91;;;9.19;95.58
31062;BME280;17724;53.546;9.974;2023-02-14T18:43:46;103206.97;;;9.25;94.51
31062;BME280;17724;53.546;9.974;2023-02-14T18:47:48;103204.63;;;8.78;95.36
31062;BME280;17724;53.546;9.974;2023-02-14T18:51:49;103191.84;;;8.85;99.03
31062;BME280;17724;53.546;9.974;2023-02-14T18:55:49;103195.34;;;8.79;96.89
31062;BME280;17724;53.546;9.974;2023-02-14T18:59:50;103189.00;;;9.08;98.95
31062;BME280;17724;53.546;9.974;2023-02-14T19:03:51;103196.56;;;9.21;96.82
31062;BME280;17724;53.546;9.974;2023-02-14T19:07:54;103185.78;;;8.60;97.38
31062;BME280;17724;53.546;9.974;2023-02-14T19:11:55;103190.41;;;8.59;98.99
31062;BME280;17724;53.546;9.974;2023-02-14T19:15:59;103190.38;;;8.22;99.82
31062;BME280;17724;53.546;9.974;2023-02-14T19:19:59;103195.63;;;8.31;100.00
31062;BME280;17724;53.546;9.974;2023-02-14T19:24:02;103185.22;;;8.27;100.00
31062;BME280;17724;53.546;9.974;2023-02-14T19:28:04;103187.75;;;8.28;100.00
31062;BME280;17724;53.546;9.974;2023-02-14T19:32:06;103186.00;;;8.12;100.00
31062;BME280;17724;53.546;9.974;2023-02-14T19:36:07;103178.56;;;8.21;100.00
31062;BME280;17724;53.546;9.974;2023-02-14T19:40:11;103190.28;;;8.53;100.00
31062;BME280;17724;53.546;9.974;2023-02-14T19:44:13;103186.16;;;8.72;100.00
31062;BME280;17724;53.546;9.974;2023-02-14T19:48:15;103194.09;;;8.52;100.00
31062;BME280;17724;53.546;9.974;2023-02-14T19:52:15;103185.22;;;8.50;100.00
31062;BME280;17724;53.546;9.974;2023-02-14T19:56:27;103193.59;;;8.48;100.00
31062;BME280;17724;53.546;9.974;2023-02-14T20:00:28;103188.78;;;7.81;100.00
31062;BME280;17724;53.546;9.974;2023-02-14T20:04:29;103191.69;;;8.11;100.00
31062;BME280;17724;53.546;9.974;2023-02-14T20:08:30;103181.34;;;7.98;100.00
31062;BME280;17724;53.546;9.974;2023-02-14T20:12:30;103183.16;;;8.06;100.00
31062;BME280;17724;53.546;9.974;2023-02-14T20:16:33;103182.16;;;7.76;100.00
31062;BME280;17724;53.546;9.974;2023-02-14T20:20:34;103179.63;;;7.74;100.00
31062;BME280;17724;53.546;9.974;2023-02-14T20:24:54;103168.16;;;8.17;100.00
31062;BME280;17724;53.546;9.974;2023-02-14T20:28:57;103158.22;;;7.70;100.00
31062;BME280;17724;53.546;9.974;2023-02-14T20:32:58;103156.50;;;7.46;100.00
31062;BME280;17724;53.546;9.974;2023-02-14T20:36:59;103151.84;;;7.77;100.00
31062;BME280;17724;53.546;9.974;2023-02-14T20:41:04;103141.75;;;7.24;100.00
31062;BME280;17724;53.546;9.974;2023-02-14T20:45:05;103129.59;;;6.87;100.00
31062;BME280;17724;53.546;9.974;2023-02-14T20:49:06;103142.84;;;7.37;100.00
31062;BME280;17724;53.546;9.974;2023-02-14T20:53:06;103141.00;;;7.30;100.00
31062;BME280;17724;53.546;9.974;2023-02-14T20:57:07;103142.31;;;7.11;100.00
31062;BME280;17724;53.546;9.974;2023-02-14T21:01:15;103127.44;;;7.68;100.00
31062;BME280;17724;53.546;9.974;2023-02-14T21:05:16;103127.97;;;7.40;100.00
31062;BME280;17724;53.546;9.974;2023-02-14T21:09:17;103129.31;;;7.44;100.00
31062;BME280;17724;53.546;9.974;2023-02-14T21:13:19;103111.31;;;7.19;100.00
31062;BME280;17724;53.546;9.974;2023-02-14T21:17:20;103121.50;;;7.33;100.00
31062;BME280;17724;53.546;9.974;2023-02-14T21:25:26;103125.38;;;7.47;100.00
31062;BME280;17724;53.546;9.974;2023-02-14T21:29:26;103125.53;;;7.45;100.00
31062;BME280;17724;53.546;9.974;2023-02-14T21:33:26;103129.78;;;7.48;100.00
31062;BME280;17724;53.546;9.974;2023-02-14T21:37:30;103114.97;;;7.11;100.00
31062;BME280;17724;53.546;9.974;2023-02-14T21:41:32;103135.00;;;7.03;100.00
31062;BME280;17724;53.546;9.974;2023-02-14T21:45:33;103140.09;;;7.14;100.00
31062;BME280;17724;53.546;9.974;2023-02-14T21:49:52;103133.66;;;6.99;100.00
31062;BME280;17724;53.546;9.974;2023-02-14T21:54:11;103123.38;;;7.01;100.00
31062;BME280;17724;53.546;9.974;2023-02-14T21:58:11;103118.88;;;6.69;100.00
31062;BME280;17724;53.546;9.974;2023-02-14T22:02:12;103114.53;;;6.91;100.00
31062;BME280;17724;53.546;9.974;2023-02-14T22:06:13;103114.88;;;6.88;100.00
31062;BME280;17724;53.546;9.974;2023-02-14T22:10:13;103110.31;;;6.72;100.00
31062;BME280;17724;53.546;9.974;2023-02-14T22:14:14;103100.78;;;6.68;100.00
31062;BME280;17724;53.546;9.974;2023-02-14T22:18:15;103105.81;;;6.87;100.00
31062;BME280;17724;53.546;9.974;2023-02-14T22:22:16;103094.44;;;6.68;100.00
31062;BME280;17724;53.546;9.974;2023-02-14T22:26:31;103105.22;;;6.61;100.00
31062;BME280;17724;53.546;9.974;2023-02-14T22:30:37;103088.22;;;6.18;100.00
31062;BME280;17724;53.546;9.974;2023-02-14T22:34:38;103081.78;;;6.19;100.00
31062;BME280;17724;53.546;9.974;2023-02-14T22:38:39;103085.00;;;6.06;100.00
31062;BME280;17724;53.546;9.974;2023-02-14T22:42:39;103092.50;;;5.47;100.00
31062;BME280;17724;53.546;9.974;2023-02-14T22:46:43;103089.38;;;5.34;100.00
31062;BME280;17724;53.546;9.974;2023-02-14T22:50:43;103086.25;;;5.04;100.00
31062;BME280;17724;53.546;9.974;2023-02-14T22:54:44;103084.63;;;4.77;100.00
31062;BME280;17724;53.546;9.974;2023-02-14T22:58:45;103085.78;;;4.75;100.00
31062;BME280;17724;53.546;9.974;2023-02-14T23:02:46;103097.38;;;4.68;100.00
31062;BME280;17724;53.546;9.974;2023-02-14T23:06:47;103095.66;;;4.67;100.00
31062;BME280;17724;53.546;9.974;2023-02-14T23:10:47;103080.84;;;4.70;100.00
31062;BME280;17724;53.546;9.974;2023-02-14T23:14:48;103081.00;;;4.68;100.00
31062;BME280;17724;53.546;9.974;2023-02-14T23:19:16;103076.06;;;4.64;100.00
31062;BME280;17724;53.546;9.974;2023-02-14T23:23:35;103082.91;;;4.76;100.00
31062;BME280;17724;53.546;9.974;2023-02-14T23:27:41;103078.03;;;4.54;100.00